createdAt,value
2018-12-10T00:00:39.424Z,6.74
2018-12-10T00:05:42.637Z,6.65
2018-12-10T00:10:46.218Z,6.58
2018-12-10T00:15:49.485Z,6.52
2018-12-10T00:20:52.679Z,6.52
2018-12-10T00:25:55.864Z,6.44
2018-12-10T00:30:59.135Z,6.43
2018-12-10T00:36:02.378Z,6.46
2018-12-10T00:41:05.627Z,6.43
2018-12-10T00:46:08.789Z,6.39
2018-12-10T00:51:12.160Z,6.34
2018-12-10T00:56:15.411Z,6.41
2018-12-10T01:01:18.572Z,6.43
2018-12-10T01:06:21.738Z,6.38
2018-12-10T01:11:24.912Z,6.41
2018-12-10T01:16:28.114Z,6.38
2018-12-10T01:21:31.327Z,6.37
2018-12-10T01:26:35.621Z,6.41
2018-12-10T01:31:38.901Z,6.39
2018-12-10T01:36:42.064Z,6.32
2018-12-10T01:41:45.229Z,6.38
2018-12-10T01:46:48.497Z,6.29
2018-12-10T01:51:51.854Z,6.08
2018-12-10T01:56:55.118Z,6.19
2018-12-10T02:01:58.307Z,6.14
2018-12-10T02:07:01.527Z,6.13
2018-12-10T02:12:04.673Z,6.11
2018-12-10T02:17:07.882Z,6.21
2018-12-10T02:22:11.318Z,6.18
2018-12-10T02:27:14.573Z,6.19
2018-12-10T02:32:17.842Z,6.19
2018-12-10T02:37:21.013Z,6.19
2018-12-10T02:42:24.378Z,6.19
2018-12-10T02:47:27.627Z,6.28
2018-12-10T02:52:30.790Z,6.21
2018-12-10T02:57:34.046Z,6.17
2018-12-10T03:02:37.211Z,6.09
2018-12-10T03:07:40.482Z,6.12
2018-12-10T03:12:43.681Z,6.02
2018-12-10T03:17:46.950Z,5.82
2018-12-10T03:22:50.134Z,5.96
2018-12-10T03:27:53.303Z,5.89
2018-12-10T03:32:56.577Z,5.84
2018-12-10T03:37:59.811Z,5.38
2018-12-10T03:43:03.110Z,4.88
2018-12-10T03:48:06.385Z,4.93
2018-12-10T03:53:09.686Z,4.96
2018-12-10T03:58:13.099Z,5.04
2018-12-10T04:03:16.293Z,5.09
2018-12-10T04:08:19.593Z,5.14
2018-12-10T04:13:22.768Z,5.12
2018-12-10T04:18:26.072Z,5.04
2018-12-10T04:23:29.375Z,4.87
2018-12-10T04:28:32.693Z,4.94
2018-12-10T04:33:36.003Z,4.89
2018-12-10T04:38:39.399Z,4.94
2018-12-10T04:43:42.702Z,5.00
2018-12-10T04:48:45.865Z,4.92
2018-12-10T04:53:49.040Z,4.97
2018-12-10T04:58:52.222Z,5.02
2018-12-10T05:03:55.550Z,5.05
2018-12-10T05:08:58.758Z,5.07
2018-12-10T05:14:02.154Z,5.06
2018-12-10T05:19:05.398Z,5.11
2018-12-10T05:24:08.595Z,5.04
2018-12-10T05:29:11.767Z,5.00
2018-12-10T05:34:15.054Z,4.91
2018-12-10T05:39:18.264Z,5.01
2018-12-10T05:44:21.530Z,4.99
2018-12-10T05:49:24.683Z,5.08
2018-12-10T05:54:27.866Z,5.13
2018-12-10T05:59:31.041Z,5.12
2018-12-10T06:04:34.195Z,5.13
2018-12-10T06:09:37.463Z,5.11
2018-12-10T06:14:40.626Z,5.03
2018-12-10T06:19:44.027Z,5.13
2018-12-10T06:24:47.405Z,5.12
2018-12-10T06:29:50.839Z,5.17
2018-12-10T06:34:54.266Z,5.05
2018-12-10T06:39:57.438Z,5.12
2018-12-10T06:45:00.627Z,5.11
2018-12-10T06:50:04.202Z,5.17
2018-12-10T06:55:07.698Z,5.10
2018-12-10T07:00:12.054Z,5.02
2018-12-10T07:05:15.321Z,5.17
2018-12-10T07:10:18.619Z,5.15
2018-12-10T07:15:21.942Z,5.09
2018-12-10T07:20:25.298Z,5.20
2018-12-10T07:25:28.649Z,5.16
2018-12-10T07:30:31.966Z,5.17
2018-12-10T07:35:35.334Z,5.27
2018-12-10T07:40:38.558Z,5.24
2018-12-10T07:45:41.762Z,5.20
2018-12-10T07:50:44.939Z,5.17
2018-12-10T08:01:19.486Z,4.94
2018-12-10T08:06:22.705Z,5.03
2018-12-10T08:11:25.891Z,5.09
2018-12-10T08:16:29.062Z,5.11
2018-12-10T08:21:32.463Z,5.13
2018-12-10T08:26:35.622Z,4.75
2018-12-10T08:31:38.850Z,4.56
2018-12-10T08:36:42.036Z,4.59
2018-12-10T08:41:45.506Z,4.71
2018-12-10T08:46:48.674Z,4.68
2018-12-10T08:51:51.930Z,4.79
2018-12-10T08:56:55.377Z,4.94
2018-12-10T09:01:58.753Z,5.14
2018-12-10T09:07:01.962Z,5.15
2018-12-10T09:12:05.201Z,4.74
2018-12-10T09:17:08.367Z,4.80
2018-12-10T09:22:11.570Z,4.94
2018-12-10T09:27:14.810Z,4.95
2018-12-10T09:32:18.111Z,5.10
2018-12-10T09:37:21.283Z,5.31
2018-12-10T09:42:24.513Z,5.55
2018-12-10T09:47:27.792Z,5.59
2018-12-10T09:52:31.016Z,5.62
2018-12-10T09:57:34.184Z,5.53
2018-12-10T10:02:37.341Z,5.72
2018-12-10T10:07:40.534Z,5.81
2018-12-10T10:12:43.823Z,6.07
2018-12-10T10:17:47.146Z,6.37
2018-12-10T10:22:50.405Z,6.16
2018-12-10T10:27:53.594Z,5.81
2018-12-10T10:32:56.751Z,5.51
2018-12-10T10:37:59.917Z,5.53
2018-12-10T10:43:03.182Z,5.61
2018-12-10T10:48:06.450Z,5.70
2018-12-10T10:53:09.621Z,5.75
2018-12-10T10:58:12.818Z,5.99
2018-12-10T11:03:21.296Z,5.83
2018-12-10T11:08:24.618Z,5.80
2018-12-10T11:13:27.902Z,5.69
2018-12-10T11:18:32.430Z,5.90
2018-12-10T11:23:35.676Z,6.13
2018-12-10T11:28:38.862Z,7.05
2018-12-10T11:33:42.046Z,6.84
2018-12-10T11:38:46.070Z,7.23
2018-12-10T11:43:49.274Z,6.52
2018-12-10T11:48:52.497Z,7.60
2018-12-10T11:53:55.650Z,7.71
2018-12-10T11:58:58.919Z,7.49
2018-12-10T12:04:02.123Z,7.34
2018-12-10T12:09:06.057Z,7.70
2018-12-10T12:14:09.316Z,8.43
2018-12-10T12:19:12.555Z,7.86
2018-12-10T12:24:15.800Z,7.17
2018-12-10T12:29:19.169Z,6.98
2018-12-10T12:34:22.346Z,7.15
2018-12-10T12:39:25.586Z,6.63
2018-12-10T12:44:28.758Z,6.42
2018-12-10T12:49:32.054Z,6.30
2018-12-10T12:54:35.405Z,6.60
2018-12-10T12:59:38.614Z,6.51
2018-12-10T13:04:41.790Z,6.30
2018-12-10T13:09:45.046Z,6.25
2018-12-10T13:14:48.234Z,6.22
2018-12-10T13:19:51.457Z,6.18
2018-12-10T13:24:54.758Z,6.19
2018-12-10T13:29:57.990Z,6.15
2018-12-10T13:35:01.184Z,5.96
2018-12-10T13:40:05.201Z,5.76
2018-12-10T13:45:08.382Z,5.88
2018-12-10T13:50:11.626Z,5.72
2018-12-10T13:55:14.809Z,5.59
2018-12-10T14:00:18.073Z,5.53
2018-12-10T14:05:21.307Z,5.41
2018-12-10T14:10:24.618Z,5.44
2018-12-10T14:15:28.962Z,5.40
2018-12-10T14:20:32.208Z,5.53
2018-12-10T14:25:35.478Z,5.61
2018-12-10T14:30:39.226Z,5.62
2018-12-10T14:35:42.410Z,5.63
2018-12-10T14:40:45.718Z,5.53
2018-12-10T14:45:48.998Z,5.60
2018-12-10T14:50:52.166Z,5.53
2018-12-10T14:55:55.343Z,5.45
2018-12-10T15:06:31.914Z,5.35
2018-12-10T15:11:35.177Z,5.26
2018-12-10T15:16:38.353Z,5.20
2018-12-10T15:21:41.683Z,5.17
2018-12-10T15:26:44.874Z,5.09
2018-12-10T15:31:48.070Z,5.05
2018-12-10T15:36:51.264Z,5.04
2018-12-10T15:41:54.545Z,5.02
2018-12-10T15:46:57.807Z,5.00
2018-12-10T15:52:01.059Z,5.09
2018-12-10T15:57:04.450Z,5.15
2018-12-10T16:02:07.694Z,5.12
2018-12-10T16:52:28.656Z,4.71
2018-12-10T16:57:31.960Z,4.79
2018-12-10T17:41:57.506Z,4.73
2018-12-10T17:47:00.834Z,4.65
2018-12-10T17:52:04.167Z,4.54
2018-12-10T18:55:19.848Z,4.02
2018-12-10T19:00:23.232Z,4.10
2018-12-10T19:05:29.080Z,4.17
2018-12-10T19:10:44.857Z,4.19
2018-12-10T19:15:48.285Z,4.25
2018-12-10T19:20:51.721Z,4.27
2018-12-10T19:25:55.084Z,4.22
2018-12-10T19:30:58.280Z,4.03
2018-12-10T19:36:01.501Z,3.95
2018-12-10T19:41:04.863Z,3.89
2018-12-10T19:46:08.252Z,3.89
2018-12-10T19:56:38.872Z,4.08
2018-12-10T20:35:27.826Z,4.06
2018-12-10T20:40:37.585Z,4.18
2018-12-10T20:45:46.522Z,4.23
2018-12-10T20:50:55.733Z,4.24
2018-12-10T20:56:05.385Z,4.27
2018-12-10T21:01:16.585Z,4.09
2018-12-10T21:06:31.252Z,3.83
2018-12-10T21:11:34.653Z,3.70
2018-12-10T21:16:38.141Z,3.60
2018-12-10T21:21:41.603Z,3.62
2018-12-10T21:26:45.320Z,3.72
2018-12-10T21:31:48.926Z,3.77
2018-12-10T21:36:52.231Z,3.84
2018-12-10T21:41:55.733Z,3.94
2018-12-10T21:46:59.209Z,3.97
2018-12-10T21:52:02.420Z,4.01
2018-12-10T21:57:05.705Z,3.98
2018-12-10T22:02:09.125Z,3.99
2018-12-10T22:12:43.556Z,3.88
2018-12-10T22:17:46.901Z,3.84
2018-12-10T22:22:50.293Z,3.93
2018-12-10T22:27:53.793Z,3.91
2018-12-10T22:32:57.105Z,3.94
2018-12-10T22:38:00.469Z,3.97
2018-12-10T22:43:03.885Z,3.81
2018-12-10T22:48:07.276Z,3.72
2018-12-10T22:53:10.770Z,3.72
2018-12-10T22:58:14.113Z,3.73
2018-12-10T23:03:17.398Z,3.76
2018-12-10T23:08:20.665Z,3.84
2018-12-10T23:13:23.856Z,3.83
2018-12-10T23:18:27.113Z,3.93
2018-12-10T23:23:30.444Z,3.92
2018-12-10T23:28:33.834Z,3.85
2018-12-10T23:33:37.089Z,3.83
2018-12-10T23:38:40.367Z,3.86
2018-12-10T23:43:43.552Z,3.70
2018-12-10T23:48:46.936Z,3.62
2018-12-10T23:53:50.150Z,3.64
2018-12-10T23:58:53.626Z,3.67
